Time;durP1;ratioP1;P1;durP2;ratioP2;P2;SDS_P1;SDS_P2;PMS_P1;PMS_P2;Temp;Humidity;BMP_temperature;BMP_pressure;BME280_temperature;BME280_humidity;BME280_pressure;Samples;Min_cycle;Max_cycle;Signal;HPM_P1;HPM_P2
2022/09/30 00:00:42;;;;;;;13.70;10.95;;;;;;;16.44;82.85;99654.41;1684848;85;20977;-72
2022/09/30 00:03:10;;;;;;;12.93;9.60;;;;;;;16.49;82.90;99652.02;1677498;85;21077;-72
2022/09/30 00:05:39;;;;;;;13.55;10.25;;;;;;;16.53;82.91;99657.84;1687822;85;21014;-72
2022/09/30 00:08:06;;;;;;;12.13;10.53;;;;;;;16.56;82.98;99664.14;1688362;84;21513;-72
2022/09/30 00:10:34;;;;;;;14.40;10.88;;;;;;;16.58;83.05;99666.13;1665775;85;22563;-72
2022/09/30 00:13:02;;;;;;;15.10;11.57;;;;;;;16.60;83.10;99664.13;1671846;83;21033;-72
2022/09/30 00:15:32;;;;;;;16.23;12.00;;;;;;;16.62;83.20;99654.62;1695491;83;20952;-72
2022/09/30 00:17:58;;;;;;;18.17;12.73;;;;;;;16.63;83.26;99658.94;1682129;84;21486;-72
2022/09/30 00:20:25;;;;;;;14.63;12.28;;;;;;;16.65;83.38;99654.25;1650330;86;21495;-73
2022/09/30 00:22:52;;;;;;;16.37;12.75;;;;;;;16.66;83.52;99663.40;1641510;86;22476;-72
2022/09/30 00:25:18;;;;;;;16.15;13.58;;;;;;;16.68;83.68;99671.22;1656212;85;21021;-72
2022/09/30 00:27:45;;;;;;;16.40;13.55;;;;;;;16.68;83.90;99674.74;1620683;85;21091;-72
2022/09/30 00:30:12;;;;;;;16.23;13.30;;;;;;;16.72;84.02;99674.73;1638387;86;21020;-72
2022/09/30 00:32:40;;;;;;;16.23;13.35;;;;;;;16.72;84.11;99667.23;1635861;86;21409;-72
2022/09/30 00:35:07;;;;;;;18.48;14.07;;;;;;;16.72;84.21;99663.23;1697983;83;22298;-72
2022/09/30 00:37:34;;;;;;;18.07;13.35;;;;;;;16.73;84.33;99672.89;1644983;85;20976;-72
2022/09/30 00:40:01;;;;;;;19.20;14.33;;;;;;;16.72;84.38;99679.23;1639422;87;20980;-72
2022/09/30 00:42:29;;;;;;;21.20;14.68;;;;;;;16.71;84.44;99682.91;1645863;85;21044;-72
2022/09/30 00:45:06;;;;;;;19.60;14.75;;;;;;;16.71;84.64;99675.74;1622925;86;21578;-72
2022/09/30 00:47:39;;;;;;;20.85;13.85;;;;;;;16.73;84.87;99683.05;1637690;86;22614;-72
2022/09/30 00:50:41;;;;;;;18.62;15.05;;;;;;;16.79;85.08;99690.83;1632273;87;21467;-72
2022/09/30 00:53:17;;;;;;;19.62;14.55;;;;;;;16.81;85.12;99690.17;1634193;86;21040;-72
2022/09/30 00:55:52;;;;;;;17.65;14.20;;;;;;;16.85;85.18;99690.13;1637239;85;21417;-72
2022/09/30 00:58:45;;;;;;;19.00;14.95;;;;;;;16.88;85.23;99689.25;1650415;84;21084;-72
2022/09/30 01:01:11;;;;;;;20.43;14.35;;;;;;;16.91;85.27;99691.26;1655944;85;22370;-72
2022/09/30 01:03:42;;;;;;;16.57;13.85;;;;;;;16.93;85.24;99698.57;1653180;86;21045;-72
2022/09/30 01:06:08;;;;;;;23.30;14.43;;;;;;;16.92;85.25;99695.08;1636612;86;21089;-72
2022/09/30 01:08:37;;;;;;;18.42;14.13;;;;;;;16.94;85.29;99689.05;1666943;85;21049;-72
2022/09/30 01:11:04;;;;;;;18.10;13.93;;;;;;;16.96;85.25;99685.69;1664111;85;21013;-72
2022/09/30 01:13:31;;;;;;;19.32;14.85;;;;;;;16.97;85.20;99682.02;1669270;85;21942;-72
2022/09/30 01:16:16;;;;;;;20.52;14.15;;;;;;;16.98;85.16;99678.33;1653610;85;21022;-72
2022/09/30 01:19:07;;;;;;;19.48;14.80;;;;;;;16.98;85.09;99687.67;1652726;85;21571;-72
2022/09/30 01:22:29;;;;;;;17.52;13.93;;;;;;;16.98;85.07;99686.84;1680438;84;21063;-72
2022/09/30 01:25:40;;;;;;;21.27;14.78;;;;;;;16.99;85.08;99676.02;1656841;85;21496;-75
2022/09/30 01:28:40;;;;;;;20.10;16.12;;;;;;;16.99;85.09;99669.34;1661492;86;22593;-73
2022/09/30 01:31:32;;;;;;;19.77;16.45;;;;;;;17.00;85.14;99680.84;1661717;86;20938;-73
2022/09/30 01:34:16;;;;;;;20.72;16.90;;;;;;;16.99;85.14;99681.35;1644252;84;21067;-75
2022/09/30 01:37:17;;;;;;;18.42;16.07;;;;;;;17.00;85.13;99672.84;1654694;85;21376;-72
2022/09/30 01:39:58;;;;;;;19.45;15.38;;;;;;;16.99;85.13;99677.86;1653139;85;21147;-73
2022/09/30 01:42:41;;;;;;;19.73;16.10;;;;;;;17.00;85.19;99672.84;1654123;86;22973;-72
2022/09/30 01:45:18;;;;;;;22.17;16.33;;;;;;;16.98;85.20;99664.99;1660088;86;21029;-72
2022/09/30 01:48:02;;;;;;;20.15;16.25;;;;;;;16.99;85.23;99657.34;1656613;86;21465;-72
2022/09/30 01:50:57;;;;;;;19.90;16.67;;;;;;;17.00;85.29;99656.33;1678038;85;21063;-73
2022/09/30 01:53:44;;;;;;;23.18;16.82;;;;;;;17.02;85.31;99657.48;1582017;90;21000;-72
2022/09/30 01:56:29;;;;;;;20.35;17.62;;;;;;;17.04;85.27;99646.94;1683351;84;22414;-72
2022/09/30 01:59:15;;;;;;;19.70;16.00;;;;;;;17.06;85.23;99648.91;1690313;83;21994;-72
2022/09/30 02:02:05;;;;;;;22.67;17.52;;;;;;;17.07;85.12;99658.58;1711824;83;21464;-72
2022/09/30 02:04:40;;;;;;;21.25;17.65;;;;;;;17.05;85.04;99675.28;1706283;82;21036;-73
2022/09/30 02:07:15;;;;;;;21.55;17.67;;;;;;;17.02;85.07;99678.82;1711894;83;21012;-72
2022/09/30 02:09:54;;;;;;;20.95;17.70;;;;;;;17.02;85.07;99679.65;1679454;85;22881;-72
2022/09/30 02:12:23;;;;;;;23.42;18.80;;;;;;;17.03;85.06;99677.81;1675262;84;21132;-72
2022/09/30 02:15:11;;;;;;;22.05;18.55;;;;;;;17.02;85.01;99674.82;1674554;84;21030;-72
2022/09/30 02:17:59;;;;;;;23.83;19.42;;;;;;;17.04;85.06;99680.80;1680288;84;21023;-72
2022/09/30 02:20:32;;;;;;;25.65;20.62;;;;;;;17.03;85.10;99674.63;1693475;83;21021;-72
2022/09/30 02:23:20;;;;;;;27.30;21.40;;;;;;;17.04;85.18;99667.45;1694547;83;21976;-73
2022/09/30 02:25:50;;;;;;;28.32;21.55;;;;;;;17.03;85.20;99673.30;1697872;84;20998;-72
2022/09/30 02:28:21;;;;;;;29.63;22.05;;;;;;;17.05;85.23;99685.95;1692272;83;21034;-72
2022/09/30 02:30:50;;;;;;;31.20;21.62;;;;;;;17.05;85.22;99681.95;1679849;84;21052;-72
2022/09/30 02:33:20;;;;;;;29.95;20.68;;;;;;;17.04;85.18;99684.80;1692144;83;21015;-73
2022/09/30 02:35:50;;;;;;;31.15;21.82;;;;;;;17.04;85.16;99684.80;1693846;83;21931;-73
2022/09/30 02:38:28;;;;;;;25.72;20.35;;;;;;;17.03;85.14;99693.31;1686016;83;21030;-72
2022/09/30 02:41:09;;;;;;;27.98;20.60;;;;;;;17.02;85.12;99692.98;1686863;82;21053;-72
2022/09/30 02:43:35;;;;;;;27.42;21.93;;;;;;;17.02;85.12;99701.50;1689615;84;21090;-73
2022/09/30 02:46:20;;;;;;;26.95;21.25;;;;;;;17.01;85.18;99699.84;1687908;83;20986;-72
2022/09/30 02:48:52;;;;;;;;;;;;;;;17.01;85.21;99698.00;1698051;83;21816;-72
2022/09/30 02:51:35;;;;;;;31.33;21.68;;;;;;;17.00;85.28;99696.34;1696560;83;20137;-72
2022/09/30 02:54:19;;;;;;;29.35;22.32;;;;;;;16.99;85.33;99693.36;1697657;83;20999;-73
2022/09/30 02:57:17;;;;;;;32.90;22.95;;;;;;;16.98;85.45;99694.84;1685096;83;21045;-72
2022/09/30 02:59:49;;;;;;;31.60;23.73;;;;;;;16.98;85.53;99701.01;1683403;83;21038;-72
2022/09/30 03:02:18;;;;;;;33.45;23.60;;;;;;;16.99;85.61;99692.53;1680259;84;21789;-72
2022/09/30 03:04:45;;;;;;;32.42;23.20;;;;;;;17.01;85.71;99695.84;1667668;84;21050;-72
2022/09/30 03:07:12;;;;;;;27.52;22.30;;;;;;;17.02;85.75;99689.49;1674957;83;21071;-73
2022/09/30 03:09:40;;;;;;;27.52;21.62;;;;;;;17.02;85.70;99689.49;1684011;84;21011;-72
2022/09/30 03:12:48;;;;;;;26.40;20.57;;;;;;;17.03;85.72;99683.97;1680324;84;21010;-72
2022/09/30 03:15:38;;;;;;;27.25;21.60;;;;;;;17.04;85.66;99691.47;1700055;83;21933;-73
2022/09/30 03:18:18;;;;;;;26.27;21.02;;;;;;;17.03;85.69;99698.64;1696476;83;21034;-73
2022/09/30 03:21:09;;;;;;;24.85;21.12;;;;;;;17.03;85.74;99703.98;1685205;84;21225;-72
2022/09/30 03:24:00;;;;;;;28.10;21.30;;;;;;;17.03;85.80;99703.16;1670673;83;21015;-73
2022/09/30 03:26:41;;;;;;;25.75;21.40;;;;;;;17.04;85.83;99707.48;1710225;83;21012;-72
2022/09/30 03:29:23;;;;;;;26.48;21.33;;;;;;;17.03;85.82;99715.98;1681869;83;22537;-72
2022/09/30 03:31:58;;;;;;;26.00;21.45;;;;;;;17.04;85.78;99714.15;1686117;84;20995;-71
2022/09/30 03:35:13;;;;;;;27.62;20.90;;;;;;;17.05;85.75;99719.30;1687579;83;21046;-73
2022/09/30 03:38:01;;;;;;;29.10;20.88;;;;;;;17.07;85.71;99725.78;1669855;83;20986;-71
2022/09/30 03:40:41;;;;;;;26.15;20.80;;;;;;;17.07;85.68;99726.61;1672573;84;21026;-73
2022/09/30 03:43:31;;;;;;;32.05;20.72;;;;;;;17.09;85.59;99729.95;1681054;85;21913;-72
2022/09/30 03:46:28;;;;;;;25.70;20.68;;;;;;;17.10;85.56;99734.28;1677997;83;21042;-72
2022/09/30 03:48:57;;;;;;;28.42;21.15;;;;;;;17.12;85.43;99734.09;1675271;83;21129;-72
2022/09/30 03:51:24;;;;;;;27.32;20.50;;;;;;;17.12;85.34;99726.92;1670282;83;20982;-72
2022/09/30 03:53:53;;;;;;;28.65;21.12;;;;;;;17.13;85.29;99731.24;1675789;83;20975;-72
2022/09/30 03:56:30;;;;;;;29.10;21.85;;;;;;;17.14;85.24;99734.73;1679150;83;22531;-72
2022/09/30 03:58:57;;;;;;;27.75;20.80;;;;;;;17.15;85.26;99739.89;1665970;84;21109;-72
2022/09/30 04:01:23;;;;;;;26.35;20.82;;;;;;;17.17;85.27;99740.53;1686180;83;21086;-72
2022/09/30 04:03:51;;;;;;;29.27;21.33;;;;;;;17.17;85.21;99745.05;1693567;84;20951;-72
2022/09/30 04:06:21;;;;;;;29.63;20.08;;;;;;;17.15;85.22;99738.56;1692903;84;21026;-73
2022/09/30 04:08:48;;;;;;;28.80;21.25;;;;;;;17.15;85.24;99746.56;1689026;84;22475;-74
2022/09/30 04:11:16;;;;;;;28.15;20.72;;;;;;;17.16;85.26;99750.89;1689233;83;21046;-74
2022/09/30 04:13:43;;;;;;;30.57;21.45;;;;;;;17.15;85.35;99751.91;1682430;83;21045;-77
2022/09/30 04:16:10;;;;;;;28.07;22.37;;;;;;;17.14;85.44;99750.75;1696328;83;21518;-71
2022/09/30 04:18:38;;;;;;;27.73;21.48;;;;;;;17.14;85.61;99750.25;1698325;83;21531;-72
2022/09/30 04:21:06;;;;;;;29.32;22.42;;;;;;;17.15;85.72;99747.90;1691567;83;21824;-72
2022/09/30 04:23:35;;;;;;;26.73;21.93;;;;;;;17.17;85.81;99753.88;1681555;83;20967;-72
2022/09/30 04:26:02;;;;;;;29.12;22.85;;;;;;;17.18;85.88;99760.08;1685649;83;21487;-72
2022/09/30 04:28:30;;;;;;;30.10;22.65;;;;;;;17.19;85.97;99755.56;1681518;83;21156;-72
2022/09/30 04:31:03;;;;;;;29.07;23.30;;;;;;;17.21;86.07;99760.22;1684169;83;21085;-73
2022/09/30 04:33:30;;;;;;;31.00;24.07;;;;;;;17.23;86.18;99768.36;1689914;83;21952;-73
2022/09/30 04:35:58;;;;;;;29.82;23.98;;;;;;;17.25;86.27;99774.84;1683927;83;21534;-73
2022/09/30 04:38:25;;;;;;;28.47;23.60;;;;;;;17.28;86.42;99771.84;1720063;82;21015;-73
2022/09/30 04:40:53;;;;;;;29.37;24.25;;;;;;;17.31;86.54;99776.30;1693160;83;21016;-72
2022/09/30 04:43:22;;;;;;;34.50;24.67;;;;;;;17.34;86.65;99771.10;1712359;83;21000;-72
2022/09/30 04:45:49;;;;;;;30.65;25.05;;;;;;;17.37;86.79;99782.74;1668086;85;22043;-73
2022/09/30 04:48:16;;;;;;;27.90;24.25;;;;;;;17.39;86.93;99784.25;1697024;83;21097;-72
2022/09/30 04:50:44;;;;;;;32.55;25.32;;;;;;;17.43;87.03;99788.71;1682058;85;21018;-72
2022/09/30 04:53:13;;;;;;;33.45;26.20;;;;;;;17.46;87.12;99791.84;1668922;83;20987;-72
2022/09/30 04:55:41;;;;;;;31.50;25.02;;;;;;;17.51;87.29;99786.48;1675573;83;21108;-73
2022/09/30 04:58:09;;;;;;;29.57;24.92;;;;;;;17.57;87.32;99783.09;1685641;83;21985;-73
2022/09/30 05:00:36;;;;;;;28.67;23.95;;;;;;;17.60;87.35;99782.22;1680388;83;21170;-72
2022/09/30 05:03:04;;;;;;;29.77;23.75;;;;;;;17.65;87.42;99787.83;1687367;84;21532;-72
2022/09/30 05:05:32;;;;;;;33.18;24.98;;;;;;;17.71;87.50;99786.31;1684735;83;21063;-73
2022/09/30 05:08:01;;;;;;;32.17;24.23;;;;;;;17.74;87.54;99780.59;1685571;83;21015;-72
2022/09/30 05:10:28;;;;;;;30.35;24.57;;;;;;;17.78;87.60;99784.58;1675776;84;21909;-72
2022/09/30 05:12:56;;;;;;;33.05;25.25;;;;;;;17.83;87.65;99790.70;1683624;85;21050;-72
2022/09/30 05:15:24;;;;;;;35.40;26.17;;;;;;;17.87;87.56;99796.84;1674347;83;21484;-72
2022/09/30 05:17:51;;;;;;;29.90;24.75;;;;;;;17.91;87.52;99803.98;1677638;83;20979;-72
2022/09/30 05:20:18;;;;;;;27.95;24.95;;;;;;;17.93;87.47;99815.30;1676402;85;21575;-74
2022/09/30 05:22:46;;;;;;;33.50;24.60;;;;;;;17.94;87.43;99807.61;1628022;86;22283;-73
2022/09/30 05:25:15;;;;;;;29.65;23.87;;;;;;;17.97;87.42;99816.62;1625957;86;21019;-73
2022/09/30 05:27:41;;;;;;;28.42;24.32;;;;;;;18.01;87.41;99815.23;1637705;86;21036;-73
2022/09/30 05:30:09;;;;;;;28.50;23.83;;;;;;;18.03;87.35;99807.84;1658686;86;21003;-73
2022/09/30 05:32:37;;;;;;;33.13;24.65;;;;;;;18.06;87.32;99810.17;1649926;85;20919;-72
2022/09/30 05:35:06;;;;;;;32.95;24.45;;;;;;;18.10;87.33;99811.96;1652836;85;22580;-73
2022/09/30 05:37:33;;;;;;;32.70;26.42;;;;;;;18.12;87.25;99804.58;1630272;85;21470;-73
2022/09/30 05:40:00;;;;;;;35.70;28.32;;;;;;;18.16;87.25;99801.38;1647580;86;21078;-73
2022/09/30 05:42:34;;;;;;;33.38;27.70;;;;;;;18.21;87.27;99796.80;1630173;85;21071;-74
2022/09/30 05:45:05;;;;;;;37.63;27.55;;;;;;;18.26;87.17;99809.11;1646760;85;21496;-73
2022/09/30 05:47:33;;;;;;;38.42;26.55;;;;;;;18.29;87.01;99807.39;1623057;86;21968;-73
2022/09/30 05:50:00;;;;;;;37.33;26.90;;;;;;;18.29;86.94;99809.56;1634524;86;21078;-73
2022/09/30 05:52:27;;;;;;;31.95;26.50;;;;;;;18.32;86.89;99805.68;1612386;87;21054;-74
2022/09/30 05:54:55;;;;;;;32.60;27.05;;;;;;;18.37;86.88;99803.80;1637330;85;21112;-73
2022/09/30 05:57:21;;;;;;;32.65;26.07;;;;;;;18.43;86.87;99797.21;1616961;86;21101;-73
2022/09/30 05:59:50;;;;;;;37.13;26.85;;;;;;;18.49;86.91;99794.28;1667429;84;22437;-73
2022/09/30 06:02:17;;;;;;;33.45;26.40;;;;;;;18.55;86.79;99791.70;1680061;83;21660;-73
2022/09/30 06:04:44;;;;;;;32.78;26.10;;;;;;;18.60;86.72;99802.64;1680813;84;21047;-73
2022/09/30 06:07:12;;;;;;;36.85;27.17;;;;;;;18.64;86.55;99796.94;1680284;83;21129;-73
2022/09/30 06:09:40;;;;;;;33.42;26.87;;;;;;;18.66;86.38;99799.77;1672184;83;21079;-72
2022/09/30 06:12:07;;;;;;;30.00;25.43;;;;;;;18.69;86.27;99799.90;1683170;84;21958;-72
2022/09/30 06:14:33;;;;;;;31.25;25.25;;;;;;;18.73;86.14;99807.88;1686778;82;21008;-72
2022/09/30 06:17:01;;;;;;;35.00;24.27;;;;;;;18.78;85.99;99813.48;1689618;82;21028;-73
2022/09/30 06:19:29;;;;;;;32.90;24.65;;;;;;;18.80;85.84;99809.59;1699807;82;21013;-73
2022/09/30 06:21:56;;;;;;;28.12;23.70;;;;;;;18.85;85.86;99815.22;1702241;83;21080;-73
2022/09/30 06:24:23;;;;;;;33.95;23.70;;;;;;;18.93;85.93;99819.64;1684306;84;21817;-73
2022/09/30 06:26:51;;;;;;;30.62;24.23;;;;;;;19.00;85.88;99819.17;1692567;82;21417;-73
2022/09/30 06:29:18;;;;;;;29.48;24.30;;;;;;;19.09;85.93;99818.55;1692990;82;21102;-73
2022/09/30 06:31:45;;;;;;;29.32;24.07;;;;;;;19.19;85.86;99824.92;1696575;82;20969;-72
2022/09/30 06:34:12;;;;;;;29.60;24.37;;;;;;;19.30;85.81;99835.13;1696571;82;21042;-71
2022/09/30 06:36:40;;;;;;;25.62;20.82;;;;;;;19.41;85.82;99833.30;1659603;83;22507;-72
2022/09/30 06:39:08;;;;;;;27.62;21.68;;;;;;;19.54;85.54;99833.91;1659132;85;21028;-74
2022/09/30 06:41:42;;;;;;;29.77;24.47;;;;;;;19.62;85.14;99840.00;1660127;85;21047;-73
2022/09/30 06:44:06;;;;;;;24.47;20.68;;;;;;;19.74;85.00;99832.26;1661700;85;21091;-74
2022/09/30 06:46:34;;;;;;;24.07;19.40;;;;;;;19.84;84.50;99829.23;1686592;83;20971;-73
2022/09/30 06:49:01;;;;;;;26.73;18.62;;;;;;;19.91;83.79;99832.80;1684945;83;21945;-73
2022/09/30 06:51:31;;;;;;;23.32;18.85;;;;;;;19.92;83.00;99837.14;1679432;83;21010;-73
2022/09/30 06:53:59;;;;;;;24.98;19.05;;;;;;;19.91;82.46;99832.29;1675590;83;21039;-75
2022/09/30 06:56:26;;;;;;;22.07;18.10;;;;;;;19.92;82.15;99843.84;1671030;83;21079;-73
2022/09/30 06:58:55;;;;;;;23.70;18.82;;;;;;;19.95;82.01;99840.25;1685229;83;20951;-73
2022/09/30 07:01:23;;;;;;;24.85;18.00;;;;;;;20.01;81.88;99846.69;1691857;83;22328;-72
2022/09/30 07:03:56;;;;;;;25.48;19.40;;;;;;;20.08;81.69;99838.70;1695162;83;20954;-72
2022/09/30 07:06:23;;;;;;;25.45;19.35;;;;;;;20.13;81.41;99844.28;1692406;82;21443;-73
2022/09/30 07:08:50;;;;;;;27.32;21.95;;;;;;;20.13;80.89;99843.77;1681161;84;21044;-75
2022/09/30 07:11:17;;;;;;;29.80;24.02;;;;;;;20.17;80.87;99846.88;1681851;83;20914;-72
2022/09/30 07:13:46;;;;;;;33.42;23.55;;;;;;;20.21;80.52;99852.18;1681036;85;21796;-72
2022/09/30 07:16:13;;;;;;;26.40;21.62;;;;;;;20.22;80.39;99854.66;1676611;83;21469;-73
2022/09/30 07:18:41;;;;;;;28.35;21.40;;;;;;;20.24;80.08;99858.48;1682421;83;21002;-75
2022/09/30 07:21:09;;;;;;;22.65;20.30;;;;;;;20.25;79.87;99861.48;1704761;83;20993;-74
2022/09/30 07:23:36;;;;;;;23.18;19.80;;;;;;;20.25;79.63;99860.96;1717632;82;21422;-76
2022/09/30 07:26:04;;;;;;;22.37;17.75;;;;;;;20.27;79.53;99871.52;1703264;83;21860;-76
2022/09/30 07:28:34;;;;;;;21.50;18.37;;;;;;;20.29;79.41;99874.83;1706507;82;21089;-76
2022/09/30 07:31:10;;;;;;;19.75;17.35;;;;;;;20.30;79.11;99878.64;1702586;82;21040;-74
2022/09/30 07:33:38;;;;;;;19.90;17.50;;;;;;;20.30;78.84;99883.19;1713275;82;21115;-76
2022/09/30 07:36:07;;;;;;;16.95;14.75;;;;;;;20.31;78.69;99883.50;1705297;82;21042;-75
2022/09/30 07:38:37;;;;;;;19.50;14.00;;;;;;;20.28;78.49;99890.09;1715313;82;22631;-76
2022/09/30 07:41:16;;;;;;;14.75;13.10;;;;;;;20.27;78.08;99891.12;1683823;85;20996;-74
2022/09/30 07:43:46;;;;;;;15.83;13.40;;;;;;;20.24;77.86;99888.80;1685732;83;21022;-75
2022/09/30 07:46:23;;;;;;;16.52;12.18;;;;;;;20.24;77.76;99892.00;1713877;82;21008;-75
2022/09/30 07:48:56;;;;;;;15.28;12.63;;;;;;;20.26;77.71;99885.92;1680192;84;20883;-74
2022/09/30 07:51:36;;;;;;;12.85;11.45;;;;;;;20.29;77.48;99881.53;1652457;85;41081;-75
2022/09/30 07:54:11;;;;;;;13.98;12.13;;;;;;;20.34;77.45;99882.27;1656656;85;21016;-75
2022/09/30 07:56:45;;;;;;;13.50;11.38;;;;;;;20.39;77.23;99870.45;1694781;83;21012;-75
2022/09/30 07:59:14;;;;;;;15.78;11.48;;;;;;;20.43;76.79;99885.97;1682899;83;28822;-75
2022/09/30 08:01:46;;;;;;;16.02;10.95;;;;;;;20.45;76.41;99885.77;1655027;85;20961;-75
2022/09/30 08:04:14;;;;;;;10.82;9.73;;;;;;;20.46;76.07;99877.55;1694005;83;21895;-75
2022/09/30 08:06:54;;;;;;;13.03;9.90;;;;;;;20.48;75.83;99882.19;1691682;84;21493;-75
2022/09/30 08:09:22;;;;;;;10.78;9.33;;;;;;;20.53;75.71;99887.78;1682736;83;21125;-75
2022/09/30 08:11:50;;;;;;;12.07;8.83;;;;;;;20.58;74.68;99888.54;1689870;84;21031;-74
2022/09/30 08:14:24;;;;;;;10.25;9.15;;;;;;;20.60;74.09;99887.00;1693622;84;21065;-74
2022/09/30 08:16:50;;;;;;;9.83;7.95;;;;;;;20.66;74.20;99878.98;1693247;83;21837;-74
2022/09/30 08:19:20;;;;;;;9.90;8.25;;;;;;;20.80;73.82;99881.20;1693316;84;20998;-75
2022/09/30 08:21:47;;;;;;;11.12;8.43;;;;;;;20.90;73.36;99881.66;1693717;84;20923;-75
2022/09/30 08:24:13;;;;;;;10.72;8.40;;;;;;;20.97;72.75;99878.48;1690533;83;21059;-76
2022/09/30 08:26:40;;;;;;;11.60;8.65;;;;;;;21.01;72.16;99881.59;1660138;86;21007;-75
2022/09/30 08:29:06;;;;;;;10.58;8.65;;;;;;;21.05;71.98;99883.69;1680783;83;22588;-74
2022/09/30 08:31:33;;;;;;;10.18;8.90;;;;;;;21.09;71.67;99874.70;1673938;83;21061;-75
2022/09/30 08:34:02;;;;;;;12.55;8.93;;;;;;;21.12;71.52;99879.66;1692790;84;21042;-76
2022/09/30 08:36:29;;;;;;;10.45;8.15;;;;;;;21.17;71.54;99876.38;1698940;83;21067;-74
2022/09/30 08:38:56;;;;;;;15.08;8.65;;;;;;;21.20;70.90;99875.45;1686352;83;21528;-73
2022/09/30 08:41:45;;;;;;;11.28;8.08;;;;;;;21.25;70.77;99877.55;1695012;83;22581;-72
2022/09/30 08:44:44;;;;;;;9.73;8.50;;;;;;;21.31;70.27;99879.42;1681224;83;21058;-72
2022/09/30 08:47:51;;;;;;;10.93;8.55;;;;;;;21.35;70.11;99884.73;1692344;84;20958;-72
2022/09/30 08:50:35;;;;;;;9.30;8.30;;;;;;;21.37;69.75;99886.69;1689907;84;21020;-72
2022/09/30 08:53:13;;;;;;;9.95;8.78;;;;;;;21.37;69.49;99888.85;1687883;84;20973;-72
2022/09/30 08:55:44;;;;;;;10.35;8.48;;;;;;;21.40;69.57;99897.02;1682143;83;21830;-73
2022/09/30 08:58:21;;;;;;;9.08;8.08;;;;;;;21.42;69.70;99890.91;1665863;86;21020;-72
2022/09/30 09:00:49;;;;;;;11.53;8.35;;;;;;;21.46;69.62;99897.55;1691723;84;20975;-72
2022/09/30 09:03:19;;;;;;;9.68;8.15;;;;;;;21.50;69.64;99903.34;1670675;86;21046;-73
2022/09/30 09:05:55;;;;;;;12.63;8.43;;;;;;;21.52;69.32;99898.09;1670759;85;20975;-73
2022/09/30 09:08:49;;;;;;;10.13;8.78;;;;;;;21.57;69.64;99898.81;1671180;85;22019;-72
2022/09/30 09:12:00;;;;;;;12.63;10.23;;;;;;;21.60;69.41;99900.56;1670677;85;21251;-72
2022/09/30 09:14:40;;;;;;;10.03;9.00;;;;;;;21.61;69.33;99906.24;1690925;84;21022;-73
2022/09/30 09:17:37;;;;;;;13.13;8.70;;;;;;;21.64;69.61;99911.23;1722406;83;21083;-72
2022/09/30 09:20:14;;;;;;;11.55;8.75;;;;;;;21.67;69.31;99909.47;1676602;83;20951;-73
2022/09/30 09:22:44;;;;;;;11.22;9.00;;;;;;;21.70;69.30;99905.02;1663071;86;21859;-73
2022/09/30 09:25:14;;;;;;;9.30;8.23;;;;;;;21.83;69.60;99906.08;1661470;85;20876;-72
2022/09/30 09:27:58;;;;;;;19.60;12.60;;;;;;;21.95;69.58;99911.97;1687662;85;21016;-72
2022/09/30 09:30:27;;;;;;;16.37;13.45;;;;;;;22.09;69.64;99918.19;1656099;84;20975;-74
2022/09/30 09:33:00;;;;;;;21.02;14.35;;;;;;;22.14;69.44;99923.78;1688094;85;20970;-72
2022/09/30 09:35:57;;;;;;;18.67;13.30;;;;;;;22.08;69.35;99925.13;1659248;85;22593;-73
2022/09/30 09:39:03;;;;;;;18.30;13.85;;;;;;;22.06;69.74;99930.69;1650478;86;20979;-74
2022/09/30 09:41:57;;;;;;;21.68;13.72;;;;;;;22.05;69.79;99923.66;1651709;85;21044;-72
2022/09/30 09:44:35;;;;;;;20.25;13.98;;;;;;;22.05;70.02;99933.06;1712646;83;21155;-74
2022/09/30 09:47:05;;;;;;;23.83;17.60;;;;;;;22.11;70.22;99933.63;1688643;85;20992;-72
2022/09/30 09:49:34;;;;;;;25.88;20.02;;;;;;;22.21;70.45;99936.72;1719841;82;21973;-72
2022/09/30 09:52:22;;;;;;;22.58;17.07;;;;;;;22.28;70.41;99937.52;1741269;82;21376;-73
2022/09/30 09:54:51;;;;;;;24.07;15.60;;;;;;;22.34;70.28;99939.08;1719470;82;21000;-72
2022/09/30 09:57:26;;;;;;;21.62;16.25;;;;;;;22.38;70.03;99942.48;1715371;83;21004;-73
2022/09/30 09:59:58;;;;;;;21.37;14.78;;;;;;;22.39;69.72;99948.20;1714775;83;21099;-72
2022/09/30 10:02:29;;;;;;;19.52;15.05;;;;;;;22.42;69.79;99952.33;1737161;82;21953;-72
2022/09/30 10:05:03;;;;;;;24.23;15.53;;;;;;;22.47;69.84;99954.68;1722173;82;20965;-72
2022/09/30 10:07:32;;;;;;;24.32;15.48;;;;;;;22.53;69.86;99957.89;1704974;82;21529;-72
2022/09/30 10:10:20;;;;;;;21.27;15.50;;;;;;;22.57;69.60;99957.77;1687146;82;21107;-73
2022/09/30 10:12:47;;;;;;;20.75;15.13;;;;;;;22.53;69.18;99958.41;1686378;84;21016;-72
2022/09/30 10:15:21;;;;;;;26.97;15.58;;;;;;;22.54;69.29;99957.38;1673771;85;21845;-72
2022/09/30 10:17:57;;;;;;;19.45;15.93;;;;;;;22.51;69.22;99968.05;1708953;82;21031;-72
2022/09/30 10:20:31;;;;;;;20.35;15.53;;;;;;;22.56;69.66;99967.41;1683687;84;20996;-73
2022/09/30 10:23:18;;;;;;;19.70;15.80;;;;;;;22.63;69.56;99958.80;1664470;85;21016;-72
2022/09/30 10:26:15;;;;;;;22.67;16.75;;;;;;;22.61;69.29;99963.58;1677156;85;21005;-72
2022/09/30 10:28:54;;;;;;;23.50;16.50;;;;;;;22.56;69.10;99962.84;1656442;86;22440;-72
2022/09/30 10:31:36;;;;;;;22.67;16.73;;;;;;;22.55;68.93;99960.37;1656210;86;21028;-72
2022/09/30 10:34:29;;;;;;;20.25;16.42;;;;;;;22.62;68.99;99961.19;1658157;85;20971;-72
2022/09/30 10:36:56;;;;;;;25.40;16.85;;;;;;;22.73;69.15;99959.72;1701230;82;21422;-73
2022/09/30 10:39:34;;;;;;;22.73;15.55;;;;;;;22.83;68.24;99964.97;1687880;84;21497;-72
2022/09/30 10:42:08;;;;;;;22.77;16.23;;;;;;;22.92;68.42;99966.95;1688308;82;22854;-73
2022/09/30 10:44:48;;;;;;;23.30;16.37;;;;;;;22.99;68.16;99966.94;1663916;85;21078;-72
2022/09/30 10:47:18;;;;;;;23.10;16.40;;;;;;;23.06;68.06;99960.98;1669776;85;21005;-72
2022/09/30 10:49:48;;;;;;;22.60;15.63;;;;;;;23.04;67.55;99962.55;1678944;85;21568;-72
2022/09/30 10:52:23;;;;;;;21.33;16.15;;;;;;;23.02;67.67;99966.50;1678915;85;21401;-72
2022/09/30 10:54:52;;;;;;;21.00;16.80;;;;;;;23.01;67.81;99963.50;1678688;85;21872;-72
2022/09/30 10:57:24;;;;;;;22.27;16.10;;;;;;;23.04;67.73;99965.76;1680725;84;20979;-72
2022/09/30 11:00:08;;;;;;;25.95;16.82;;;;;;;23.05;67.63;99963.37;1683039;85;21486;-73
2022/09/30 11:03:12;;;;;;;20.95;16.25;;;;;;;23.11;67.74;99967.39;1682159;83;21025;-72
2022/09/30 11:05:42;;;;;;;24.55;16.42;;;;;;;23.27;68.05;99959.88;1692401;84;21059;-71
2022/09/30 11:08:34;;;;;;;23.75;15.70;;;;;;;23.48;66.85;99954.69;1647878;86;22611;-73
2022/09/30 11:11:17;;;;;;;20.27;15.15;;;;;;;23.55;66.13;99958.18;1666715;83;20964;-72
2022/09/30 11:14:24;;;;;;;22.25;16.97;;;;;;;23.52;65.94;99959.42;1679449;82;20960;-72
2022/09/30 11:17:11;;;;;;;21.93;16.35;;;;;;;23.54;65.99;99960.02;1638315;84;21095;-72
2022/09/30 11:19:49;;;;;;;19.50;16.37;;;;;;;23.56;66.24;99958.48;1688555;85;21055;-71
2022/09/30 11:22:43;;;;;;;23.25;16.40;;;;;;;23.59;66.35;99960.24;1715268;82;21915;-71
2022/09/30 11:25:14;;;;;;;;;;;;;;;23.52;65.60;99961.29;1703732;84;21019;-72
2022/09/30 11:28:14;;;;;;;19.92;16.35;;;;;;;23.32;65.51;99970.83;1712923;83;20166;-72
2022/09/30 11:31:04;;;;;;;21.48;16.05;;;;;;;23.19;65.96;99959.59;1714581;83;21023;-71
2022/09/30 11:33:57;;;;;;;22.22;15.93;;;;;;;23.20;66.74;99958.55;1715219;83;21024;-72
2022/09/30 11:36:45;;;;;;;19.75;15.78;;;;;;;23.24;66.95;99955.72;1658413;86;21862;-76
2022/09/30 11:39:38;;;;;;;24.52;17.10;;;;;;;23.36;66.80;99959.42;1656294;86;20967;-72
2022/09/30 11:42:22;;;;;;;21.30;15.55;;;;;;;23.39;66.03;99964.89;1661253;86;20995;-72
2022/09/30 11:45:10;;;;;;;21.93;16.00;;;;;;;23.43;66.44;99964.23;1712899;82;21016;-72
2022/09/30 11:48:08;;;;;;;20.77;15.65;;;;;;;23.49;66.28;99964.42;1687833;85;21082;-71
2022/09/30 11:50:53;;;;;;;21.10;16.00;;;;;;;23.45;66.02;99967.23;1687804;85;21873;-72
2022/09/30 11:53:43;;;;;;;18.95;15.75;;;;;;;23.34;66.09;99969.56;1687766;85;21015;-72
2022/09/30 11:56:45;;;;;;;23.55;14.93;;;;;;;23.30;66.28;99973.73;1690026;84;21089;-72